sensor_id;sensor_type;location;lat;lon;timestamp;pressure;altitude;pressure_sealevel;temperature;humidity
69766;BME280;57039;48.014;21.384;2023-11-21T00:00:57;99989.03;;;6.40;100.00
69766;BME280;57039;48.014;21.384;2023-11-21T00:02:01;99984.53;;;6.44;100.00
69766;BME280;57039;48.014;21.384;2023-11-21T00:03:04;99987.63;;;6.33;100.00
69766;BME280;57039;48.014;21.384;2023-11-21T00:04:07;99996.22;;;6.35;100.00
69766;BME280;57039;48.014;21.384;2023-11-21T00:05:11;99990.22;;;6.33;100.00
69766;BME280;57039;48.014;21.384;2023-11-21T00:06:16;99991.16;;;6.32;100.00
69766;BME280;57039;48.014;21.384;2023-11-21T00:07:19;99997.84;;;6.37;100.00
69766;BME280;57039;48.014;21.384;2023-11-21T00:08:24;99990.88;;;6.38;100.00
69766;BME280;57039;48.014;21.384;2023-11-21T00:09:27;99990.19;;;6.34;100.00
69766;BME280;57039;48.014;21.384;2023-11-21T00:10:30;99991.03;;;6.35;100.00
69766;BME280;57039;48.014;21.384;2023-11-21T00:11:33;99991.03;;;6.35;100.00
69766;BME280;57039;48.014;21.384;2023-11-21T00:12:37;99991.03;;;6.35;100.00
69766;BME280;57039;48.014;21.384;2023-11-21T00:13:40;99989.31;;;6.34;100.00
69766;BME280;57039;48.014;21.384;2023-11-21T00:14:42;99993.47;;;6.38;100.00
69766;BME280;57039;48.014;21.384;2023-11-21T00:15:45;99999.44;;;6.40;100.00
69766;BME280;57039;48.014;21.384;2023-11-21T00:16:48;99996.09;;;6.38;100.00
69766;BME280;57039;48.014;21.384;2023-11-21T00:17:51;99998.69;;;6.38;100.00
69766;BME280;57039;48.014;21.384;2023-11-21T00:18:54;100004.03;;;6.35;100.00
69766;BME280;57039;48.014;21.384;2023-11-21T00:19:57;99998.97;;;6.32;100.00
69766;BME280;57039;48.014;21.384;2023-11-21T00:21:00;100000.78;;;6.30;100.00
69766;BME280;57039;48.014;21.384;2023-11-21T00:22:03;100002.69;;;6.26;100.00
69766;BME280;57039;48.014;21.384;2023-11-21T00:23:06;100001.88;;;6.26;100.00
69766;BME280;57039;48.014;21.384;2023-11-21T00:24:10;100004.25;;;6.30;100.00
69766;BME280;57039;48.014;21.384;2023-11-21T00:25:13;99999.03;;;6.30;100.00
69766;BME280;57039;48.014;21.384;2023-11-21T00:26:18;100003.41;;;6.30;100.00
69766;BME280;57039;48.014;21.384;2023-11-21T00:27:21;100002.63;;;6.28;100.00
69766;BME280;57039;48.014;21.384;2023-11-21T00:28:25;99988.75;;;6.08;100.00
69766;BME280;57039;48.014;21.384;2023-11-21T00:29:28;100008.75;;;6.27;100.00
69766;BME280;57039;48.014;21.384;2023-11-21T00:30:31;100012.19;;;6.27;100.00
69766;BME280;57039;48.014;21.384;2023-11-21T00:31:34;100019.16;;;6.27;100.00
69766;BME280;57039;48.014;21.384;2023-11-21T00:32:38;100013.25;;;6.23;100.00
69766;BME280;57039;48.014;21.384;2023-11-21T00:33:43;99989.88;;;6.03;100.00
69766;BME280;57039;48.014;21.384;2023-11-21T00:34:45;100015.88;;;6.23;100.00
69766;BME280;57039;48.014;21.384;2023-11-21T00:35:48;100014.38;;;6.17;100.00
69766;BME280;57039;48.014;21.384;2023-11-21T00:36:51;100018.53;;;6.22;100.00
69766;BME280;57039;48.014;21.384;2023-11-21T00:37:54;100021.13;;;6.22;100.00
69766;BME280;57039;48.014;21.384;2023-11-21T00:38:58;100015.16;;;6.20;100.00
69766;BME280;57039;48.014;21.384;2023-11-21T00:40:01;100016.84;;;6.21;100.00
69766;BME280;57039;48.014;21.384;2023-11-21T00:41:09;100015.62;;;6.28;100.00
69766;BME280;57039;48.014;21.384;2023-11-21T00:42:12;100014.03;;;6.25;100.00
69766;BME280;57039;48.014;21.384;2023-11-21T00:43:15;100013.44;;;6.18;100.00
69766;BME280;57039;48.014;21.384;2023-11-21T00:44:18;100013.72;;;6.12;100.00
69766;BME280;57039;48.014;21.384;2023-11-21T00:45:21;100001.12;;;6.03;100.00
69766;BME280;57039;48.014;21.384;2023-11-21T00:46:24;100018.31;;;6.07;100.00
69766;BME280;57039;48.014;21.384;2023-11-21T00:47:29;100016.69;;;6.05;100.00
69766;BME280;57039;48.014;21.384;2023-11-21T00:48:33;100015.62;;;6.09;100.00
69766;BME280;57039;48.014;21.384;2023-11-21T00:49:36;100014.66;;;6.11;100.00
69766;BME280;57039;48.014;21.384;2023-11-21T00:50:39;100000.34;;;6.01;100.00
69766;BME280;57039;48.014;21.384;2023-11-21T00:51:41;100005.50;;;6.03;100.00
69766;BME280;57039;48.014;21.384;2023-11-21T00:52:44;100010.00;;;5.99;100.00
69766;BME280;57039;48.014;21.384;2023-11-21T00:53:48;100004.94;;;5.96;100.00
69766;BME280;57039;48.014;21.384;2023-11-21T00:54:51;100007.53;;;5.96;100.00
69766;BME280;57039;48.014;21.384;2023-11-21T00:55:54;100007.53;;;5.96;100.00
69766;BME280;57039;48.014;21.384;2023-11-21T00:56:59;100003.88;;;6.00;100.00
69766;BME280;57039;48.014;21.384;2023-11-21T00:58:02;100007.44;;;5.98;100.00
69766;BME280;57039;48.014;21.384;2023-11-21T00:59:06;100003.22;;;5.95;100.00
69766;BME280;57039;48.014;21.384;2023-11-21T01:00:10;100002.81;;;5.84;100.00
69766;BME280;57039;48.014;21.384;2023-11-21T01:01:21;100000.09;;;5.87;100.00
69766;BME280;57039;48.014;21.384;2023-11-21T01:02:27;100001.91;;;5.85;100.00
69766;BME280;57039;48.014;21.384;2023-11-21T01:03:30;100005.56;;;5.81;100.00
69766;BME280;57039;48.014;21.384;2023-11-21T01:04:33;100005.56;;;5.81;100.00
69766;BME280;57039;48.014;21.384;2023-11-21T01:05:36;100004.78;;;5.79;100.00
69766;BME280;57039;48.014;21.384;2023-11-21T01:06:39;99995.28;;;5.78;100.00
69766;BME280;57039;48.014;21.384;2023-11-21T01:07:44;99997.03;;;5.77;100.00
69766;BME280;57039;48.014;21.384;2023-11-21T01:08:46;99991.38;;;5.67;100.00
69766;BME280;57039;48.014;21.384;2023-11-21T01:09:49;99999.06;;;5.70;100.00
69766;BME280;57039;48.014;21.384;2023-11-21T01:10:53;99997.25;;;5.72;100.00
69766;BME280;57039;48.014;21.384;2023-11-21T01:11:56;99977.22;;;5.54;100.00
69766;BME280;57039;48.014;21.384;2023-11-21T01:12:59;99999.75;;;5.74;100.00
69766;BME280;57039;48.014;21.384;2023-11-21T01:14:03;100004.22;;;5.72;100.00
69766;BME280;57039;48.014;21.384;2023-11-21T01:15:07;99972.16;;;5.51;100.00
69766;BME280;57039;48.014;21.384;2023-11-21T01:16:14;99997.03;;;5.77;100.00
69766;BME280;57039;48.014;21.384;2023-11-21T01:17:17;99988.50;;;5.73;100.00
69766;BME280;57039;48.014;21.384;2023-11-21T01:18:21;100000.75;;;5.71;100.00
69766;BME280;57039;48.014;21.384;2023-11-21T01:19:24;99990.34;;;5.71;100.00
69766;BME280;57039;48.014;21.384;2023-11-21T01:20:27;99993.94;;;5.69;100.00
69766;BME280;57039;48.014;21.384;2023-11-21T01:21:31;99992.22;;;5.68;100.00
69766;BME280;57039;48.014;21.384;2023-11-21T01:22:34;99996.66;;;5.66;100.00
69766;BME280;57039;48.014;21.384;2023-11-21T01:23:38;99990.66;;;5.64;100.00
69766;BME280;57039;48.014;21.384;2023-11-21T01:24:41;99997.69;;;5.62;100.00
69766;BME280;57039;48.014;21.384;2023-11-21T01:25:43;99995.94;;;5.62;100.00
69766;BME280;57039;48.014;21.384;2023-11-21T01:26:46;99991.66;;;5.61;100.00
69766;BME280;57039;48.014;21.384;2023-11-21T01:27:49;99998.63;;;5.61;100.00
69766;BME280;57039;48.014;21.384;2023-11-21T01:28:52;99997.06;;;5.57;100.00
69766;BME280;57039;48.014;21.384;2023-11-21T01:29:55;99988.34;;;5.58;100.00
69766;BME280;57039;48.014;21.384;2023-11-21T01:30:58;99995.31;;;5.57;100.00
69766;BME280;57039;48.014;21.384;2023-11-21T01:32:02;99987.50;;;5.57;100.00
69766;BME280;57039;48.014;21.384;2023-11-21T01:33:06;99989.31;;;5.55;100.00
69766;BME280;57039;48.014;21.384;2023-11-21T01:34:09;99988.47;;;5.55;100.00
69766;BME280;57039;48.014;21.384;2023-11-21T01:35:12;99990.22;;;5.54;100.00
69766;BME280;57039;48.014;21.384;2023-11-21T01:36:15;99989.31;;;5.55;100.00
69766;BME280;57039;48.014;21.384;2023-11-21T01:37:20;99990.94;;;5.58;100.00
69766;BME280;57039;48.014;21.384;2023-11-21T01:38:24;100003.03;;;5.59;100.00
69766;BME280;57039;48.014;21.384;2023-11-21T01:39:27;99990.09;;;5.57;100.00
69766;BME280;57039;48.014;21.384;2023-11-21T01:40:30;99993.47;;;5.59;100.00
69766;BME280;57039;48.014;21.384;2023-11-21T01:41:33;99980.56;;;5.56;100.00
69766;BME280;57039;48.014;21.384;2023-11-21T01:42:37;99979.75;;;5.56;100.00
69766;BME280;57039;48.014;21.384;2023-11-21T01:43:41;99986.56;;;5.58;100.00
69766;BME280;57039;48.014;21.384;2023-11-21T01:44:44;99983.91;;;5.60;100.00
69766;BME280;57039;48.014;21.384;2023-11-21T01:45:47;99989.03;;;5.61;100.00
69766;BME280;57039;48.014;21.384;2023-11-21T01:46:50;99995.03;;;5.63;100.00
69766;BME280;57039;48.014;21.384;2023-11-21T01:47:54;99996.78;;;5.63;100.00
69766;BME280;57039;48.014;21.384;2023-11-21T01:48:59;99994.13;;;5.64;100.00
69766;BME280;57039;48.014;21.384;2023-11-21T01:50:03;99998.34;;;5.67;100.00
69766;BME280;57039;48.014;21.384;2023-11-21T01:51:09;99999.19;;;5.67;100.00
69766;BME280;57039;48.014;21.384;2023-11-21T01:52:12;99984.41;;;5.68;100.00
69766;BME280;57039;48.014;21.384;2023-11-21T01:53:16;99983.53;;;5.69;100.00
69766;BME280;57039;48.014;21.384;2023-11-21T01:54:19;99988.91;;;5.64;100.00
69766;BME280;57039;48.014;21.384;2023-11-21T01:55:23;99979.22;;;5.68;100.00
69766;BME280;57039;48.014;21.384;2023-11-21T01:56:31;99982.69;;;5.68;100.00
69766;BME280;57039;48.014;21.384;2023-11-21T01:57:35;99977.41;;;5.70;100.00
69766;BME280;57039;48.014;21.384;2023-11-21T01:58:40;99987.81;;;5.70;100.00
69766;BME280;57039;48.014;21.384;2023-11-21T01:59:44;99987.75;;;5.71;100.00
69766;BME280;57039;48.014;21.384;2023-11-21T02:00:48;99994.56;;;5.74;100.00
69766;BME280;57039;48.014;21.384;2023-11-21T02:01:53;100001.59;;;5.72;100.00
69766;BME280;57039;48.014;21.384;2023-11-21T02:02:56;99996.31;;;5.73;100.00
69766;BME280;57039;48.014;21.384;2023-11-21T02:04:02;99992.03;;;5.72;100.00
69766;BME280;57039;48.014;21.384;2023-11-21T02:05:05;99986.69;;;5.76;100.00
69766;BME280;57039;48.014;21.384;2023-11-21T02:06:08;99986.81;;;5.72;100.00
69766;BME280;57039;48.014;21.384;2023-11-21T02:07:11;99981.41;;;5.77;100.00
69766;BME280;57039;48.014;21.384;2023-11-21T02:08:14;99984.75;;;5.81;100.00
69766;BME280;57039;48.014;21.384;2023-11-21T02:09:24;99979.53;;;5.81;100.00
69766;BME280;57039;48.014;21.384;2023-11-21T02:10:27;99972.44;;;5.84;100.00
69766;BME280;57039;48.014;21.384;2023-11-21T02:11:30;99977.78;;;5.81;100.00
69766;BME280;57039;48.014;21.384;2023-11-21T02:12:33;99982.16;;;5.81;100.00
69766;BME280;57039;48.014;21.384;2023-11-21T02:13:37;99979.69;;;5.78;100.00
69766;BME280;57039;48.014;21.384;2023-11-21T02:14:40;99986.81;;;5.72;100.00
69766;BME280;57039;48.014;21.384;2023-11-21T02:15:43;99979.81;;;5.75;100.00
69766;BME280;57039;48.014;21.384;2023-11-21T02:16:46;99982.72;;;5.67;100.00
69766;BME280;57039;48.014;21.384;2023-11-21T02:17:52;99985.16;;;5.71;100.00
69766;BME280;57039;48.014;21.384;2023-11-21T02:18:57;99982.53;;;5.71;100.00
69766;BME280;57039;48.014;21.384;2023-11-21T02:20:00;99977.53;;;5.67;100.00
69766;BME280;57039;48.014;21.384;2023-11-21T02:21:04;99987.81;;;5.70;100.00
69766;BME280;57039;48.014;21.384;2023-11-21T02:22:07;99993.44;;;5.80;100.00
69766;BME280;57039;48.014;21.384;2023-11-21T02:23:10;99989.94;;;5.81;100.00
69766;BME280;57039;48.014;21.384;2023-11-21T02:24:15;99994.03;;;5.86;100.00
69766;BME280;57039;48.014;21.384;2023-11-21T02:25:20;99977.13;;;5.76;100.00
69766;BME280;57039;48.014;21.384;2023-11-21T02:26:23;100002.09;;;5.80;100.00
69766;BME280;57039;48.014;21.384;2023-11-21T02:27:26;99993.25;;;5.84;100.00
69766;BME280;57039;48.014;21.384;2023-11-21T02:28:30;99991.50;;;5.85;100.00
69766;BME280;57039;48.014;21.384;2023-11-21T02:29:32;99991.44;;;5.86;100.00
69766;BME280;57039;48.014;21.384;2023-11-21T02:30:35;99999.25;;;5.86;100.00
69766;BME280;57039;48.014;21.384;2023-11-21T02:31:39;99995.78;;;5.86;100.00
69766;BME280;57039;48.014;21.384;2023-11-21T02:32:51;99994.09;;;5.85;100.00
69766;BME280;57039;48.014;21.384;2023-11-21T02:33:57;99995.72;;;5.87;100.00
69766;BME280;57039;48.014;21.384;2023-11-21T02:35:00;99989.69;;;5.87;100.00
69766;BME280;57039;48.014;21.384;2023-11-21T02:36:10;99989.47;;;5.91;100.00
69766;BME280;57039;48.014;21.384;2023-11-21T02:37:14;99991.34;;;5.88;100.00
69766;BME280;57039;48.014;21.384;2023-11-21T02:38:17;99986.44;;;5.82;100.00
69766;BME280;57039;48.014;21.384;2023-11-21T02:39:21;99989.72;;;5.85;100.00
69766;BME280;57039;48.014;21.384;2023-11-21T02:40:24;99996.66;;;5.86;100.00
69766;BME280;57039;48.014;21.384;2023-11-21T02:41:29;99994.94;;;5.85;100.00
69766;BME280;57039;48.014;21.384;2023-11-21T02:42:32;99987.84;;;5.89;100.00
69766;BME280;57039;48.014;21.384;2023-11-21T02:43:35;99991.22;;;5.91;100.00
69766;BME280;57039;48.014;21.384;2023-11-21T02:44:38;99993.66;;;5.96;100.00
69766;BME280;57039;48.014;21.384;2023-11-21T02:45:42;99993.66;;;5.96;100.00
69766;BME280;57039;48.014;21.384;2023-11-21T02:46:45;99988.38;;;5.97;100.00
69766;BME280;57039;48.014;21.384;2023-11-21T02:47:48;99983.97;;;5.99;100.00
69766;BME280;57039;48.014;21.384;2023-11-21T02:48:56;99980.56;;;5.97;100.00
69766;BME280;57039;48.014;21.384;2023-11-21T02:50:00;99988.50;;;5.94;100.00
69766;BME280;57039;48.014;21.384;2023-11-21T02:51:03;99980.69;;;5.94;100.00
69766;BME280;57039;48.014;21.384;2023-11-21T02:52:07;99972.63;;;6.00;100.00
69766;BME280;57039;48.014;21.384;2023-11-21T02:53:10;99972.72;;;5.99;100.00
69766;BME280;57039;48.014;21.384;2023-11-21T02:54:13;99966.75;;;5.95;100.00
69766;BME280;57039;48.014;21.384;2023-11-21T02:55:18;99954.13;;;5.86;100.00
69766;BME280;57039;48.014;21.384;2023-11-21T02:56:21;99977.69;;;6.03;100.00
69766;BME280;57039;48.014;21.384;2023-11-21T02:57:23;99981.50;;;5.96;100.00
69766;BME280;57039;48.014;21.384;2023-11-21T02:58:26;99983.97;;;5.99;100.00
69766;BME280;57039;48.014;21.384;2023-11-21T02:59:29;99982.19;;;6.00;100.00
69766;BME280;57039;48.014;21.384;2023-11-21T03:00:32;99986.47;;;6.01;100.00
69766;BME280;57039;48.014;21.384;2023-11-21T03:01:35;99985.63;;;6.00;100.00
69766;BME280;57039;48.014;21.384;2023-11-21T03:02:38;99984.78;;;6.00;100.00
69766;BME280;57039;48.014;21.384;2023-11-21T03:03:41;99990.84;;;6.00;100.00
69766;BME280;57039;48.014;21.384;2023-11-21T03:04:44;99984.84;;;5.98;100.00
69766;BME280;57039;48.014;21.384;2023-11-21T03:05:47;99991.78;;;5.99;100.00
69766;BME280;57039;48.014;21.384;2023-11-21T03:06:50;99990.06;;;5.98;100.00
69766;BME280;57039;48.014;21.384;2023-11-21T03:07:53;99983.97;;;5.99;100.00
69766;BME280;57039;48.014;21.384;2023-11-21T03:08:56;99980.28;;;6.03;100.00
69766;BME280;57039;48.014;21.384;2023-11-21T03:09:59;99982.00;;;6.04;100.00
69766;BME280;57039;48.014;21.384;2023-11-21T03:11:02;99975.03;;;6.05;100.00
69766;BME280;57039;48.014;21.384;2023-11-21T03:12:05;99974.38;;;6.00;100.00
69766;BME280;57039;48.014;21.384;2023-11-21T03:13:08;99974.44;;;5.98;100.00
69766;BME280;57039;48.014;21.384;2023-11-21T03:14:11;99979.59;;;6.00;100.00
69766;BME280;57039;48.014;21.384;2023-11-21T03:15:14;99981.41;;;5.98;100.00
69766;BME280;57039;48.014;21.384;2023-11-21T03:16:18;99981.53;;;5.94;100.00
69766;BME280;57039;48.014;21.384;2023-11-21T03:17:22;99982.50;;;5.92;100.00
69766;BME280;57039;48.014;21.384;2023-11-21T03:18:24;99976.41;;;5.93;100.00
69766;BME280;57039;48.014;21.384;2023-11-21T03:19:27;99979.88;;;5.92;100.00
69766;BME280;57039;48.014;21.384;2023-11-21T03:20:33;99972.34;;;5.86;100.00
69766;BME280;57039;48.014;21.384;2023-11-21T03:21:38;99983.25;;;5.96;100.00
69766;BME280;57039;48.014;21.384;2023-11-21T03:22:40;99981.41;;;5.98;100.00
69766;BME280;57039;48.014;21.384;2023-11-21T03:23:43;99976.19;;;5.98;100.00
69766;BME280;57039;48.014;21.384;2023-11-21T03:24:46;99972.63;;;6.00;100.00
69766;BME280;57039;48.014;21.384;2023-11-21T03:25:49;99975.22;;;6.00;100.00
69766;BME280;57039;48.014;21.384;2023-11-21T03:26:52;99972.47;;;6.03;100.00
69766;BME280;57039;48.014;21.384;2023-11-21T03:27:55;99966.84;;;5.93;100.00
69766;BME280;57039;48.014;21.384;2023-11-21T03:28:58;99978.75;;;5.99;100.00
69766;BME280;57039;48.014;21.384;2023-11-21T03:30:01;99986.47;;;6.01;100.00
69766;BME280;57039;48.014;21.384;2023-11-21T03:31:06;99977.03;;;5.98;100.00
69766;BME280;57039;48.014;21.384;2023-11-21T03:32:12;99984.09;;;5.96;100.00
69766;BME280;57039;48.014;21.384;2023-11-21T03:33:16;99977.13;;;5.97;100.00
69766;BME280;57039;48.014;21.384;2023-11-21T03:34:26;99980.56;;;5.97;100.00
69766;BME280;57039;48.014;21.384;2023-11-21T03:35:30;99981.66;;;5.91;100.00
69766;BME280;57039;48.014;21.384;2023-11-21T03:36:32;99990.00;;;6.00;100.00
69766;BME280;57039;48.014;21.384;2023-11-21T03:37:35;99987.31;;;6.01;100.00
69766;BME280;57039;48.014;21.384;2023-11-21T03:38:41;99987.84;;;5.89;100.00
69766;BME280;57039;48.014;21.384;2023-11-21T03:39:44;99987.59;;;5.95;100.00
69766;BME280;57039;48.014;21.384;2023-11-21T03:40:48;99990.84;;;5.80;100.00
69766;BME280;57039;48.014;21.384;2023-11-21T03:41:51;99990.84;;;5.80;100.00
69766;BME280;57039;48.014;21.384;2023-11-21T03:42:54;99988.69;;;5.89;100.00
69766;BME280;57039;48.014;21.384;2023-11-21T03:43:57;99990.53;;;5.87;100.00
69766;BME280;57039;48.014;21.384;2023-11-21T03:45:00;99986.84;;;5.93;100.00
69766;BME280;57039;48.014;21.384;2023-11-21T03:46:03;99987.69;;;5.92;100.00
69766;BME280;57039;48.014;21.384;2023-11-21T03:47:06;99987.69;;;5.92;100.00
69766;BME280;57039;48.014;21.384;2023-11-21T03:48:12;99985.06;;;5.93;100.00
69766;BME280;57039;48.014;21.384;2023-11-21T03:49:14;99978.87;;;5.96;100.00
69766;BME280;57039;48.014;21.384;2023-11-21T03:50:17;99984.09;;;5.96;100.00
69766;BME280;57039;48.014;21.384;2023-11-21T03:51:20;99984.84;;;5.98;100.00
69766;BME280;57039;48.014;21.384;2023-11-21T03:52:24;99985.72;;;5.99;100.00
69766;BME280;57039;48.014;21.384;2023-11-21T03:53:27;99990.19;;;5.95;100.00
69766;BME280;57039;48.014;21.384;2023-11-21T03:54:30;99975.59;;;5.91;100.00
69766;BME280;57039;48.014;21.384;2023-11-21T03:55:33;99976.16;;;5.79;100.00
69766;BME280;57039;48.014;21.384;2023-11-21T03:56:36;99987.25;;;5.82;100.00
69766;BME280;57039;48.014;21.384;2023-11-21T03:57:39;99985.44;;;5.84;100.00
69766;BME280;57039;48.014;21.384;2023-11-21T03:58:42;99984.47;;;5.87;100.00
69766;BME280;57039;48.014;21.384;2023-11-21T03:59:45;99989.69;;;5.87;100.00
69766;BME280;57039;48.014;21.384;2023-11-21T04:00:48;99986.44;;;5.82;100.00
69766;BME280;57039;48.014;21.384;2023-11-21T04:01:51;99993.31;;;5.83;100.00
69766;BME280;57039;48.014;21.384;2023-11-21T04:02:54;99995.88;;;5.84;100.00
69766;BME280;57039;48.014;21.384;2023-11-21T04:03:58;100001.12;;;5.83;100.00
69766;BME280;57039;48.014;21.384;2023-11-21T04:05:01;100004.66;;;5.82;100.00
69766;BME280;57039;48.014;21.384;2023-11-21T04:06:04;99990.72;;;5.83;100.00
69766;BME280;57039;48.014;21.384;2023-11-21T04:07:08;99999.25;;;5.86;100.00
69766;BME280;57039;48.014;21.384;2023-11-21T04:08:11;99996.50;;;5.89;100.00
69766;BME280;57039;48.014;21.384;2023-11-21T04:09:14;99993.97;;;5.88;100.00
69766;BME280;57039;48.014;21.384;2023-11-21T04:10:17;99983.97;;;5.79;100.00
69766;BME280;57039;48.014;21.384;2023-11-21T04:11:20;99982.59;;;5.70;100.00
69766;BME280;57039;48.014;21.384;2023-11-21T04:12:23;99990.97;;;5.77;100.00
69766;BME280;57039;48.014;21.384;2023-11-21T04:13:25;99987.53;;;5.76;100.00
69766;BME280;57039;48.014;21.384;2023-11-21T04:14:28;99985.78;;;5.77;100.00
69766;BME280;57039;48.014;21.384;2023-11-21T04:15:31;99983.88;;;5.80;100.00
69766;BME280;57039;48.014;21.384;2023-11-21T04:16:34;99988.19;;;5.81;100.00
69766;BME280;57039;48.014;21.384;2023-11-21T04:17:37;99982.16;;;5.81;100.00
69766;BME280;57039;48.014;21.384;2023-11-21T04:18:40;99985.72;;;5.78;100.00
69766;BME280;57039;48.014;21.384;2023-11-21T04:19:43;99983.13;;;5.78;100.00
69766;BME280;57039;48.014;21.384;2023-11-21T04:20:48;99975.31;;;5.78;100.00
69766;BME280;57039;48.014;21.384;2023-11-21T04:21:51;99970.25;;;5.75;100.00
69766;BME280;57039;48.014;21.384;2023-11-21T04:22:54;99970.25;;;5.75;100.00
69766;BME280;57039;48.014;21.384;2023-11-21T04:23:57;99969.31;;;5.76;100.00
69766;BME280;57039;48.014;21.384;2023-11-21T04:25:01;99961.50;;;5.76;100.00
69766;BME280;57039;48.014;21.384;2023-11-21T04:26:04;99963.19;;;5.77;100.00
69766;BME280;57039;48.014;21.384;2023-11-21T04:27:07;99959.12;;;5.71;100.00
69766;BME280;57039;48.014;21.384;2023-11-21T04:28:10;99964.81;;;5.80;100.00
69766;BME280;57039;48.014;21.384;2023-11-21T04:29:13;99969.13;;;5.81;100.00
69766;BME280;57039;48.014;21.384;2023-11-21T04:30:16;99966.53;;;5.81;100.00
69766;BME280;57039;48.014;21.384;2023-11-21T04:31:19;99974.94;;;5.86;100.00
69766;BME280;57039;48.014;21.384;2023-11-21T04:32:22;99974.75;;;5.90;100.00
69766;BME280;57039;48.014;21.384;2023-11-21T04:33:24;99970.41;;;5.91;100.00
69766;BME280;57039;48.014;21.384;2023-11-21T04:34:28;99970.53;;;5.88;100.00
69766;BME280;57039;48.014;21.384;2023-11-21T04:35:33;99971.31;;;5.90;100.00
69766;BME280;57039;48.014;21.384;2023-11-21T04:36:36;99969.87;;;5.83;100.00
69766;BME280;57039;48.014;21.384;2023-11-21T04:37:39;99962.06;;;5.83;100.00
69766;BME280;57039;48.014;21.384;2023-11-21T04:38:43;99972.34;;;5.86;100.00
69766;BME280;57039;48.014;21.384;2023-11-21T04:39:46;99964.81;;;5.80;100.00
69766;BME280;57039;48.014;21.384;2023-11-21T04:40:49;99935.19;;;5.63;100.00
69766;BME280;57039;48.014;21.384;2023-11-21T04:41:52;99974.12;;;5.85;100.00
69766;BME280;57039;48.014;21.384;2023-11-21T04:42:54;99968.00;;;5.86;100.00
69766;BME280;57039;48.014;21.384;2023-11-21T04:43:59;99965.53;;;5.83;100.00
69766;BME280;57039;48.014;21.384;2023-11-21T04:45:06;99965.53;;;5.83;100.00
69766;BME280;57039;48.014;21.384;2023-11-21T04:46:12;99969.97;;;5.81;100.00
69766;BME280;57039;48.014;21.384;2023-11-21T04:47:15;99970.81;;;5.82;100.00
69766;BME280;57039;48.014;21.384;2023-11-21T04:48:18;99971.37;;;5.88;100.00
69766;BME280;57039;48.014;21.384;2023-11-21T04:49:22;99961.94;;;5.86;100.00
69766;BME280;57039;48.014;21.384;2023-11-21T04:50:25;99970.28;;;5.94;100.00
69766;BME280;57039;48.014;21.384;2023-11-21T04:51:29;99977.25;;;5.93;100.00
69766;BME280;57039;48.014;21.384;2023-11-21T04:52:34;99974.69;;;5.92;100.00
69766;BME280;57039;48.014;21.384;2023-11-21T04:53:37;99983.25;;;5.96;100.00
69766;BME280;57039;48.014;21.384;2023-11-21T04:54:40;99989.31;;;5.96;100.00
69766;BME280;57039;48.014;21.384;2023-11-21T04:55:43;99994.44;;;5.98;100.00
69766;BME280;57039;48.014;21.384;2023-11-21T04:56:46;99994.75;;;5.90;100.00
69766;BME280;57039;48.014;21.384;2023-11-21T04:57:49;99998.25;;;5.89;100.00
69766;BME280;57039;48.014;21.384;2023-11-21T04:58:53;100007.31;;;5.80;100.00
69766;BME280;57039;48.014;21.384;2023-11-21T04:59:56;100008.75;;;5.67;100.00
69766;BME280;57039;48.014;21.384;2023-11-21T05:00:59;100011.66;;;5.59;100.00
69766;BME280;57039;48.014;21.384;2023-11-21T05:02:01;100005.63;;;5.59;100.00
69766;BME280;57039;48.014;21.384;2023-11-21T05:03:06;100005.56;;;5.60;100.00
69766;BME280;57039;48.014;21.384;2023-11-21T05:04:10;100013.56;;;5.56;100.00
69766;BME280;57039;48.014;21.384;2023-11-21T05:05:13;100006.47;;;5.59;100.00
69766;BME280;57039;48.014;21.384;2023-11-21T05:06:17;100007.00;;;5.67;100.00
69766;BME280;57039;48.014;21.384;2023-11-21T05:07:20;100016.44;;;5.70;100.00
69766;BME280;57039;48.014;21.384;2023-11-21T05:08:23;100017.94;;;5.55;100.00
69766;BME280;57039;48.014;21.384;2023-11-21T05:09:26;100024.09;;;5.53;100.00
69766;BME280;57039;48.014;21.384;2023-11-21T05:10:31;100017.53;;;5.44;100.00
69766;BME280;57039;48.014;21.384;2023-11-21T05:11:33;100020.25;;;5.41;100.00
69766;BME280;57039;48.014;21.384;2023-11-21T05:12:36;100021.09;;;5.41;100.00
69766;BME280;57039;48.014;21.384;2023-11-21T05:13:42;100017.53;;;5.44;100.00
69766;BME280;57039;48.014;21.384;2023-11-21T05:14:46;100014.53;;;5.53;100.00
69766;BME280;57039;48.014;21.384;2023-11-21T05:15:49;100018.62;;;5.59;100.00
69766;BME280;57039;48.014;21.384;2023-11-21T05:16:52;100009.66;;;5.45;100.00
69766;BME280;57039;48.014;21.384;2023-11-21T05:17:57;100009.53;;;5.48;100.00
69766;BME280;57039;48.014;21.384;2023-11-21T05:19:03;100016.13;;;5.57;100.00
69766;BME280;57039;48.014;21.384;2023-11-21T05:20:07;100012.84;;;5.52;100.00
69766;BME280;57039;48.014;21.384;2023-11-21T05:21:12;100012.69;;;5.57;100.00
69766;BME280;57039;48.014;21.384;2023-11-21T05:22:15;100010.37;;;5.49;100.00
69766;BME280;57039;48.014;21.384;2023-11-21T05:23:18;100007.53;;;5.55;100.00
69766;BME280;57039;48.014;21.384;2023-11-21T05:24:21;99998.03;;;5.54;100.00
69766;BME280;57039;48.014;21.384;2023-11-21T05:25:24;100005.19;;;5.49;100.00
69766;BME280;57039;48.014;21.384;2023-11-21T05:26:27;99998.34;;;5.46;100.00
69766;BME280;57039;48.014;21.384;2023-11-21T05:27:30;100005.06;;;5.52;100.00
69766;BME280;57039;48.014;21.384;2023-11-21T05:28:36;100006.81;;;5.52;100.00
69766;BME280;57039;48.014;21.384;2023-11-21T05:29:39;100009.47;;;5.50;100.00
69766;BME280;57039;48.014;21.384;2023-11-21T05:30:42;100011.22;;;5.49;100.00
69766;BME280;57039;48.014;21.384;2023-11-21T05:31:45;100018.84;;;5.54;100.00